ENST/SSJ METAR and TAF weather

Enter ICAO airport designator
Station Type Date Time Source
ENST METAR 2021/01/27 14:20 UTC NOAA

ENST 271420Z 15010KT 100V200 9999 VCSH FEW012TCU BKN028 01/M04 Q1002 RMK WIND 300FT 14017KT


Station Type Date Time Source
ENST Decoded METAR 2021/01/27 14:20 UTC NOAA

Sandnessjoen / Stokka, Norway (ENST) 65-58N 012-28E 17M
Jan 27, 2021 - 09:20 AM EST / 2021.01.27 1420 UTC
Wind: from the SSE (150 degrees) at 12 MPH (10 KT) (direction variable):0
Visibility: greater than 7 mile(s):0
Sky conditions: mostly cloudy
Weather: showers in the vicinity; Towering cumulus clouds observed
Temperature: 33 F (1 C)
Windchill: 24 F (-4 C):1
Dew Point: 24 F (-4 C)
Relative Humidity: 69%
Pressure (altimeter): 29.59 in. Hg (1002 hPa)
ob: ENST 271420Z 15010KT 100V200 9999 VCSH FEW012TCU BKN028 01/M04 Q1002 RMK WIND 300FT 14017KT
cycle: 14

Station Type Date Time Source
ENST TAF UTC NOAA

Error!

Example: see airport list